createdAt,value
2022-10-05T00:01:24.139Z,17.80
2022-10-05T00:03:51.038Z,12.07
2022-10-05T00:06:17.506Z,11.38
2022-10-05T00:08:44.150Z,11.02
2022-10-05T00:11:13.223Z,18.27
2022-10-05T00:13:39.950Z,15.55
2022-10-05T00:16:15.843Z,13.32
2022-10-05T00:18:43.343Z,13.23
2022-10-05T00:21:18.975Z,11.30
2022-10-05T00:23:45.517Z,12.82
2022-10-05T00:26:14.544Z,16.20
2022-10-05T00:28:41.337Z,12.00
2022-10-05T00:31:28.078Z,17.27
2022-10-05T00:33:56.529Z,46.85
2022-10-05T00:36:23.273Z,13.48
2022-10-05T00:38:49.710Z,11.25
2022-10-05T00:41:48.615Z,11.85
2022-10-05T00:44:24.179Z,13.40
2022-10-05T00:46:59.791Z,13.07
2022-10-05T00:49:44.953Z,11.73
2022-10-05T00:52:21.996Z,11.82
2022-10-05T00:55:07.610Z,13.27
2022-10-05T00:57:41.198Z,14.82
2022-10-05T01:00:13.362Z,12.65
2022-10-05T01:02:51.903Z,14.25
2022-10-05T01:05:37.018Z,21.33
2022-10-05T01:08:32.806Z,16.98
2022-10-05T01:10:59.226Z,10.10
2022-10-05T01:13:31.909Z,11.63
2022-10-05T01:16:05.659Z,14.95
2022-10-05T01:18:32.114Z,11.40
2022-10-05T01:21:04.741Z,10.88
2022-10-05T01:23:34.217Z,13.25
2022-10-05T01:26:06.874Z,12.77
2022-10-05T01:28:48.796Z,12.88
2022-10-05T01:31:15.230Z,10.68
2022-10-05T01:33:46.366Z,11.95
2022-10-05T01:36:12.761Z,9.93
2022-10-05T01:38:39.156Z,10.43
2022-10-05T01:41:05.655Z,10.00
2022-10-05T01:43:50.923Z,13.40
2022-10-05T01:46:28.808Z,16.20
2022-10-05T01:48:55.945Z,11.75
2022-10-05T01:51:29.019Z,25.73
2022-10-05T01:54:07.704Z,11.10
2022-10-05T01:56:37.324Z,11.32
2022-10-05T01:59:18.011Z,13.27
2022-10-05T02:01:47.592Z,13.10
2022-10-05T02:04:35.568Z,12.68
2022-10-05T02:07:06.916Z,12.68
2022-10-05T02:09:36.852Z,12.77
2022-10-05T02:12:11.736Z,11.70
2022-10-05T02:14:39.754Z,10.45
2022-10-05T02:17:19.157Z,14.38
2022-10-05T02:19:54.510Z,11.38
2022-10-05T02:22:28.725Z,12.18
2022-10-05T02:24:57.342Z,14.48
2022-10-05T02:27:31.578Z,12.10
2022-10-05T02:30:01.610Z,11.70
2022-10-05T02:32:44.771Z,10.80
2022-10-05T02:35:15.796Z,16.38
2022-10-05T02:37:57.372Z,12.60
2022-10-05T02:40:37.247Z,12.52
2022-10-05T02:43:16.955Z,17.42
2022-10-05T02:45:56.634Z,11.50
2022-10-05T02:48:23.291Z,11.02
2022-10-05T02:51:02.321Z,15.35
2022-10-05T02:53:46.138Z,13.05
2022-10-05T02:56:18.627Z,11.88
2022-10-05T02:58:48.308Z,11.45
2022-10-05T03:01:33.942Z,20.63
2022-10-05T03:04:10.749Z,10.50
2022-10-05T03:06:46.382Z,16.17
2022-10-05T03:09:16.391Z,10.80
2022-10-05T03:12:04.821Z,13.65
2022-10-05T03:14:46.502Z,14.40
2022-10-05T03:17:15.668Z,12.10
2022-10-05T03:19:44.574Z,15.90
2022-10-05T03:22:24.995Z,29.67
2022-10-05T03:25:10.383Z,10.23
2022-10-05T03:27:42.267Z,11.75
2022-10-05T03:30:15.440Z,10.63
2022-10-05T03:32:58.150Z,10.75
2022-10-05T03:35:43.275Z,11.70
2022-10-05T03:38:18.044Z,14.05
2022-10-05T03:40:59.553Z,10.55
2022-10-05T03:43:33.058Z,12.18
2022-10-05T03:46:12.602Z,13.30
2022-10-05T03:48:42.126Z,10.73
2022-10-05T03:51:20.781Z,14.75
2022-10-05T03:53:56.245Z,10.80
2022-10-05T03:56:44.329Z,12.55
2022-10-05T03:59:22.279Z,11.65
2022-10-05T04:01:51.292Z,18.10
2022-10-05T04:04:28.050Z,16.08
2022-10-05T04:06:55.703Z,16.30
2022-10-05T04:09:22.869Z,11.05
2022-10-05T04:11:52.901Z,16.55
2022-10-05T04:14:25.416Z,13.77
2022-10-05T04:16:54.468Z,16.20
2022-10-05T04:19:23.270Z,11.00
2022-10-05T04:22:09.650Z,11.60
2022-10-05T04:24:54.993Z,14.00
2022-10-05T04:27:23.806Z,13.52
2022-10-05T04:30:12.438Z,14.32
2022-10-05T04:32:48.450Z,14.32
2022-10-05T04:35:38.092Z,11.13
2022-10-05T04:38:23.558Z,11.68
2022-10-05T04:40:57.815Z,14.18
2022-10-05T04:43:24.280Z,10.57
2022-10-05T04:46:06.198Z,15.52
2022-10-05T04:48:51.481Z,12.25
2022-10-05T04:51:29.996Z,11.30
2022-10-05T04:54:16.957Z,10.98
2022-10-05T04:56:49.607Z,12.38
2022-10-05T04:59:28.139Z,14.52
2022-10-05T05:02:13.748Z,11.40
2022-10-05T05:04:47.161Z,11.88
2022-10-05T05:07:30.910Z,12.98
2022-10-05T05:10:19.020Z,12.10
2022-10-05T05:13:05.732Z,11.40
2022-10-05T05:15:37.771Z,11.25
2022-10-05T05:18:39.839Z,11.85
2022-10-05T05:21:21.406Z,11.05
2022-10-05T05:24:22.485Z,11.23
2022-10-05T05:27:11.959Z,11.60
2022-10-05T05:29:44.995Z,10.65
2022-10-05T05:32:22.333Z,11.18
2022-10-05T05:35:00.247Z,10.75
2022-10-05T05:37:41.355Z,12.90
2022-10-05T05:40:22.917Z,10.18
2022-10-05T05:43:00.425Z,11.90
2022-10-05T05:45:27.627Z,15.90
2022-10-05T05:47:55.051Z,21.65
2022-10-05T05:50:24.317Z,14.75
2022-10-05T05:52:55.808Z,11.43
2022-10-05T05:55:30.120Z,11.98
2022-10-05T05:58:06.163Z,11.23
2022-10-05T06:00:37.568Z,11.00
2022-10-05T06:03:11.620Z,10.40
2022-10-05T06:05:41.854Z,10.52
2022-10-05T06:08:29.465Z,11.95
2022-10-05T06:11:06.682Z,10.27
2022-10-05T06:13:35.888Z,9.82
2022-10-05T06:16:14.924Z,10.35
2022-10-05T06:18:43.726Z,10.90
2022-10-05T06:21:30.228Z,10.02
2022-10-05T06:24:10.641Z,11.23
2022-10-05T06:26:46.399Z,9.77
2022-10-05T06:29:21.005Z,8.60
2022-10-05T06:31:58.610Z,8.05
2022-10-05T06:34:50.915Z,9.35
2022-10-05T06:37:34.373Z,8.93
2022-10-05T06:40:03.792Z,9.35
2022-10-05T06:42:59.379Z,9.30
2022-10-05T06:45:34.815Z,9.98
2022-10-05T06:48:09.960Z,10.63
2022-10-05T06:51:09.650Z,9.07
2022-10-05T06:53:49.527Z,8.95
2022-10-05T06:56:33.244Z,9.23
2022-10-05T06:59:03.892Z,9.25
2022-10-05T07:01:49.744Z,9.27
2022-10-05T07:04:16.470Z,9.05
2022-10-05T07:06:46.129Z,10.95
2022-10-05T07:09:27.984Z,8.63
2022-10-05T07:12:05.212Z,11.50
2022-10-05T07:14:55.513Z,8.15
2022-10-05T07:17:44.221Z,8.50
2022-10-05T07:20:21.099Z,9.93
2022-10-05T07:23:07.875Z,9.00
2022-10-05T07:25:47.250Z,10.80
2022-10-05T07:28:21.112Z,8.57
2022-10-05T07:31:07.145Z,7.85
2022-10-05T07:33:38.131Z,8.65
2022-10-05T07:36:45.033Z,8.30
2022-10-05T07:39:32.411Z,8.13
2022-10-05T07:42:27.984Z,8.35
2022-10-05T07:45:00.406Z,9.65
2022-10-05T07:47:38.264Z,10.25
2022-10-05T07:50:08.646Z,11.70
2022-10-05T07:52:44.954Z,8.20
2022-10-05T07:55:12.294Z,8.18
2022-10-05T07:57:57.888Z,7.18
2022-10-05T08:00:27.345Z,7.00
2022-10-05T08:03:00.477Z,9.15
2022-10-05T08:05:46.993Z,6.85
2022-10-05T08:08:33.516Z,6.68
2022-10-05T08:11:05.276Z,8.30
2022-10-05T08:13:37.043Z,7.35
2022-10-05T08:16:06.520Z,7.68
2022-10-05T08:18:45.918Z,6.05
2022-10-05T08:21:16.113Z,7.70
2022-10-05T08:23:49.354Z,9.50
2022-10-05T08:26:29.573Z,6.78
2022-10-05T08:29:14.600Z,7.18
2022-10-05T08:31:55.578Z,5.95
2022-10-05T08:34:40.377Z,6.05
2022-10-05T08:37:09.353Z,7.60
2022-10-05T08:39:40.854Z,5.93
2022-10-05T08:42:26.157Z,6.22
2022-10-05T08:45:24.263Z,8.18
2022-10-05T08:48:09.835Z,5.10
2022-10-05T08:50:48.480Z,5.65
2022-10-05T08:53:20.446Z,6.50
2022-10-05T08:55:49.973Z,6.22
2022-10-05T08:58:25.396Z,5.97
2022-10-05T09:00:57.898Z,6.10
2022-10-05T09:03:43.128Z,5.88
2022-10-05T09:06:28.493Z,6.18
2022-10-05T09:09:03.263Z,6.95
2022-10-05T09:11:37.168Z,6.07
2022-10-05T09:14:31.155Z,7.43
2022-10-05T09:17:05.053Z,7.07
2022-10-05T09:19:35.314Z,7.40
2022-10-05T09:22:14.054Z,6.30
2022-10-05T09:24:57.376Z,6.70
2022-10-05T09:27:43.194Z,6.35
2022-10-05T09:30:32.857Z,7.38
2022-10-05T09:32:59.517Z,6.13
2022-10-05T09:35:58.055Z,7.32
2022-10-05T09:38:34.935Z,7.05
2022-10-05T09:41:22.109Z,6.63
2022-10-05T09:44:11.286Z,5.57
2022-10-05T09:46:37.950Z,6.28
2022-10-05T09:49:16.877Z,7.88
2022-10-05T09:51:52.569Z,5.15
2022-10-05T09:54:21.856Z,5.85
2022-10-05T09:57:04.124Z,4.90
2022-10-05T09:59:47.632Z,4.32
2022-10-05T10:02:43.547Z,5.80
2022-10-05T10:05:25.328Z,17.33
2022-10-05T10:07:55.654Z,5.45
2022-10-05T10:10:41.094Z,5.32
2022-10-05T10:13:16.621Z,4.90
2022-10-05T10:16:02.184Z,5.35
2022-10-05T10:18:47.262Z,8.30
2022-10-05T10:21:33.195Z,4.25
2022-10-05T10:24:03.199Z,5.18
2022-10-05T10:26:48.913Z,4.38
2022-10-05T10:29:15.448Z,5.07
2022-10-05T10:31:51.194Z,5.22
2022-10-05T10:34:37.740Z,7.43
2022-10-05T10:37:08.462Z,4.80
2022-10-05T10:39:55.367Z,4.30
2022-10-05T10:42:40.599Z,4.20
2022-10-05T10:45:17.147Z,5.20
2022-10-05T10:48:03.637Z,3.88
2022-10-05T10:50:30.148Z,3.95
2022-10-05T10:53:15.671Z,4.25
2022-10-05T10:56:00.536Z,4.63
2022-10-05T10:58:50.795Z,5.88
2022-10-05T11:01:29.468Z,4.53
2022-10-05T11:04:08.440Z,6.13
2022-10-05T11:06:39.683Z,6.57
2022-10-05T11:09:27.074Z,4.10
2022-10-05T11:12:08.990Z,5.35
2022-10-05T11:14:46.018Z,5.68
2022-10-05T11:17:15.916Z,4.15
2022-10-05T11:20:02.916Z,5.28
2022-10-05T11:22:43.058Z,5.82
2022-10-05T11:25:29.864Z,3.22
2022-10-05T11:27:59.194Z,4.90
2022-10-05T11:30:47.452Z,4.53
2022-10-05T11:33:36.008Z,7.40
2022-10-05T11:36:20.864Z,5.32
2022-10-05T11:39:04.049Z,4.60
2022-10-05T11:41:36.425Z,3.45
2022-10-05T11:44:17.060Z,4.95
2022-10-05T11:46:47.822Z,5.15
2022-10-05T11:49:19.850Z,3.20
2022-10-05T11:51:52.387Z,4.80
2022-10-05T11:54:21.948Z,4.95
2022-10-05T11:56:50.849Z,3.67
2022-10-05T11:59:34.512Z,4.53
2022-10-05T12:02:00.953Z,6.05
2022-10-05T12:04:36.598Z,4.13
2022-10-05T12:07:18.210Z,4.00
2022-10-05T12:10:17.063Z,3.38
2022-10-05T12:12:46.324Z,3.83
2022-10-05T12:15:25.542Z,4.28
2022-10-05T12:18:08.863Z,2.83
2022-10-05T12:20:54.955Z,4.15
2022-10-05T12:23:33.161Z,2.90
2022-10-05T12:26:13.658Z,4.47
2022-10-05T12:28:47.480Z,3.78
2022-10-05T12:31:18.352Z,3.45
2022-10-05T12:33:51.086Z,4.90
2022-10-05T12:36:20.456Z,2.58
2022-10-05T12:38:50.069Z,10.93
2022-10-05T12:41:27.823Z,3.80
2022-10-05T12:44:33.933Z,2.90
2022-10-05T12:47:06.110Z,2.28
2022-10-05T12:49:57.722Z,1.25
2022-10-05T12:52:25.537Z,4.43
2022-10-05T12:55:01.339Z,3.75
2022-10-05T12:57:55.759Z,1.48
2022-10-05T13:00:23.362Z,3.78
2022-10-05T13:02:54.750Z,3.53
2022-10-05T13:05:39.745Z,2.20
2022-10-05T13:08:32.775Z,1.48
2022-10-05T13:11:39.192Z,2.00
2022-10-05T13:14:08.403Z,4.25
2022-10-05T13:16:34.988Z,2.20
2022-10-05T13:19:13.595Z,3.50
2022-10-05T13:21:46.076Z,3.92
2022-10-05T13:24:17.347Z,2.85
2022-10-05T13:26:50.091Z,2.85
2022-10-05T13:29:22.190Z,1.50
2022-10-05T13:31:57.311Z,1.65
2022-10-05T13:34:42.592Z,2.17
2022-10-05T13:37:09.095Z,2.42
2022-10-05T13:39:41.040Z,2.80
2022-10-05T13:42:11.382Z,2.08
2022-10-05T13:44:50.652Z,1.80
2022-10-05T13:47:17.127Z,3.25
2022-10-05T13:49:50.782Z,3.10
2022-10-05T13:52:34.939Z,2.78
2022-10-05T13:55:01.389Z,1.42
2022-10-05T13:57:45.186Z,2.55
2022-10-05T14:00:14.905Z,1.83
2022-10-05T14:02:43.366Z,2.25
2022-10-05T14:05:20.795Z,4.93
2022-10-05T14:08:02.602Z,2.05
2022-10-05T14:10:39.871Z,4.88
2022-10-05T14:13:18.268Z,1.92
2022-10-05T14:15:56.104Z,1.98
2022-10-05T14:18:27.314Z,1.48
2022-10-05T14:21:17.486Z,2.08
2022-10-05T14:23:44.387Z,2.25
2022-10-05T14:26:17.866Z,3.17
2022-10-05T14:28:56.151Z,3.58
2022-10-05T14:31:29.292Z,6.35
2022-10-05T14:33:56.837Z,3.17
2022-10-05T14:36:34.931Z,1.88
2022-10-05T14:39:04.995Z,2.38
2022-10-05T14:41:37.587Z,2.00
2022-10-05T14:44:24.378Z,4.15
2022-10-05T14:46:55.638Z,2.35
2022-10-05T14:49:25.759Z,1.75
2022-10-05T14:51:53.427Z,2.00
2022-10-05T14:54:43.772Z,3.85
2022-10-05T14:57:14.566Z,3.38
2022-10-05T15:00:02.217Z,2.03
2022-10-05T15:02:48.613Z,1.77
2022-10-05T15:05:35.019Z,3.17
2022-10-05T15:08:10.427Z,3.53
2022-10-05T15:10:41.240Z,2.65
2022-10-05T15:13:25.647Z,1.98
2022-10-05T15:15:54.631Z,2.25
2022-10-05T15:18:31.835Z,2.13
2022-10-05T15:21:24.170Z,1.63
2022-10-05T15:23:54.685Z,2.28
2022-10-05T15:26:38.513Z,4.22
2022-10-05T15:29:04.908Z,5.32
2022-10-05T15:31:51.650Z,3.30
2022-10-05T15:34:24.820Z,4.15
2022-10-05T15:37:10.045Z,2.97
2022-10-05T15:39:45.726Z,2.92
2022-10-05T15:42:14.670Z,8.13
2022-10-05T15:44:46.998Z,3.85
2022-10-05T15:47:19.758Z,4.95
2022-10-05T15:49:57.179Z,4.82
2022-10-05T15:52:29.623Z,3.65
2022-10-05T15:55:32.530Z,4.72
2022-10-05T15:58:17.501Z,2.47
2022-10-05T16:00:48.812Z,2.13
2022-10-05T16:03:23.346Z,3.03
2022-10-05T16:06:13.545Z,2.47
2022-10-05T16:08:54.003Z,4.65
2022-10-05T16:11:37.863Z,8.85
2022-10-05T16:14:15.599Z,5.15
2022-10-05T16:16:51.669Z,6.15
2022-10-05T16:19:26.545Z,4.78
2022-10-05T16:22:07.822Z,4.80
2022-10-05T16:24:53.230Z,4.47
2022-10-05T16:27:35.055Z,3.40
2022-10-05T16:30:11.200Z,4.70
2022-10-05T16:32:42.449Z,2.80
2022-10-05T16:35:14.916Z,3.33
2022-10-05T16:38:00.132Z,4.93
2022-10-05T16:40:43.771Z,3.13
2022-10-05T16:43:31.434Z,4.63
2022-10-05T16:48:46.006Z,4.35
2022-10-05T16:51:19.591Z,5.78
2022-10-05T16:53:59.220Z,6.13
2022-10-05T16:56:28.942Z,6.07
2022-10-05T16:59:01.671Z,3.42
2022-10-05T17:02:02.170Z,1.75
2022-10-05T17:04:31.542Z,4.53
2022-10-05T17:06:58.730Z,5.25
2022-10-05T17:09:37.529Z,6.25
2022-10-05T17:12:36.347Z,4.13
2022-10-05T17:15:10.487Z,4.65
2022-10-05T17:17:58.669Z,3.47
2022-10-05T17:20:50.597Z,4.18
2022-10-05T17:23:29.197Z,2.70
2022-10-05T17:25:58.384Z,5.75
2022-10-05T17:28:26.727Z,4.47
2022-10-05T17:31:13.914Z,2.67
2022-10-05T17:33:58.969Z,3.15
2022-10-05T17:36:43.997Z,3.55
2022-10-05T17:39:14.529Z,4.13
2022-10-05T17:41:41.074Z,5.72
2022-10-05T17:44:17.161Z,4.28
2022-10-05T17:46:46.511Z,4.95
2022-10-05T17:49:32.029Z,2.70
2022-10-05T17:52:18.562Z,2.50
2022-10-05T17:55:04.088Z,3.03
2022-10-05T17:57:34.091Z,3.55
2022-10-05T18:00:02.897Z,3.35
2022-10-05T18:02:45.286Z,4.35
2022-10-05T18:05:20.413Z,5.35
2022-10-05T18:07:48.876Z,3.10
2022-10-05T18:10:40.425Z,5.65
2022-10-05T18:13:20.451Z,6.80
2022-10-05T18:15:50.799Z,4.78
2022-10-05T18:18:38.776Z,5.43
2022-10-05T18:21:16.509Z,3.63
2022-10-05T18:24:00.659Z,3.00
2022-10-05T18:26:46.780Z,5.03
2022-10-05T18:29:39.710Z,4.35
2022-10-05T18:32:26.730Z,4.72
2022-10-05T18:35:08.004Z,4.22
2022-10-05T18:37:54.813Z,3.60
2022-10-05T18:40:22.924Z,5.28
2022-10-05T18:42:57.150Z,2.97
2022-10-05T18:45:32.821Z,2.10
2022-10-05T18:48:05.491Z,2.45
2022-10-05T18:50:38.355Z,4.40
2022-10-05T18:53:09.245Z,4.22
2022-10-05T18:55:43.018Z,3.40
2022-10-05T18:58:36.901Z,1.70
2022-10-05T19:01:22.739Z,3.28
2022-10-05T19:04:13.221Z,3.15
2022-10-05T19:06:43.029Z,4.13
2022-10-05T19:09:18.594Z,1.95
2022-10-05T19:11:57.763Z,3.92
2022-10-05T19:14:56.647Z,3.78
2022-10-05T19:17:23.064Z,2.95
2022-10-05T19:19:58.682Z,3.92
2022-10-05T19:22:44.223Z,3.55
2022-10-05T19:25:20.500Z,2.50
2022-10-05T19:28:05.874Z,4.88
2022-10-05T19:30:46.136Z,4.10
2022-10-05T19:33:18.874Z,4.70
2022-10-05T19:35:45.459Z,3.92
2022-10-05T19:38:15.566Z,3.08
2022-10-05T19:40:42.376Z,3.58
2022-10-05T19:43:08.797Z,4.13
2022-10-05T19:46:01.721Z,4.43
2022-10-05T19:49:06.853Z,2.47
2022-10-05T19:51:38.221Z,3.60
2022-10-05T19:54:16.756Z,3.53
2022-10-05T19:56:49.408Z,4.00
2022-10-05T19:59:20.129Z,4.03
2022-10-05T20:01:50.682Z,3.85
2022-10-05T20:04:31.319Z,2.30
2022-10-05T20:06:58.686Z,3.30
2022-10-05T20:09:25.148Z,2.67
2022-10-05T20:11:52.474Z,4.75
2022-10-05T20:14:32.381Z,4.45
2022-10-05T20:17:53.114Z,3.17
2022-10-05T20:20:23.442Z,3.13
2022-10-05T20:22:49.875Z,3.50
2022-10-05T20:25:19.302Z,3.92
2022-10-05T20:27:49.967Z,6.43
2022-10-05T20:30:18.440Z,2.95
2022-10-05T20:32:51.907Z,5.57
2022-10-05T20:35:21.569Z,4.15
2022-10-05T20:37:49.901Z,3.60
2022-10-05T20:40:17.678Z,3.03
2022-10-05T20:42:44.223Z,3.42
2022-10-05T20:45:11.337Z,5.57
2022-10-05T20:47:38.236Z,4.90
2022-10-05T20:50:05.584Z,3.90
2022-10-05T20:52:32.004Z,5.53
2022-10-05T20:54:58.912Z,4.20
2022-10-05T20:57:26.570Z,3.95
2022-10-05T20:59:53.242Z,5.00
2022-10-05T21:02:19.694Z,5.40
2022-10-05T21:04:47.640Z,5.70
2022-10-05T21:07:19.866Z,3.80
2022-10-05T21:09:46.750Z,8.02
2022-10-05T21:12:13.957Z,3.42
2022-10-05T21:14:40.611Z,5.70
2022-10-05T21:17:07.429Z,4.57
2022-10-05T21:19:38.288Z,4.85
2022-10-05T21:22:07.343Z,3.58
2022-10-05T21:24:35.208Z,5.13
2022-10-05T21:27:01.892Z,3.15
2022-10-05T21:29:28.360Z,6.32
2022-10-05T21:31:54.949Z,9.02
2022-10-05T21:34:21.519Z,4.03
2022-10-05T21:36:47.982Z,5.82
2022-10-05T21:39:14.410Z,4.25
2022-10-05T21:41:40.877Z,5.95
2022-10-05T21:44:07.359Z,3.00
2022-10-05T21:46:35.436Z,2.67
2022-10-05T21:49:01.884Z,5.65
2022-10-05T21:51:28.344Z,2.92
2022-10-05T21:53:56.697Z,3.83
2022-10-05T21:56:28.039Z,9.35
2022-10-05T21:58:54.671Z,5.90
2022-10-05T22:01:22.859Z,5.88
2022-10-05T22:03:49.838Z,4.72
2022-10-05T22:06:16.364Z,3.47
2022-10-05T22:08:42.836Z,4.38
2022-10-05T22:11:13.801Z,1.42
2022-10-05T22:13:48.116Z,1.75
2022-10-05T22:16:15.718Z,3.42
2022-10-05T22:18:42.861Z,4.75
2022-10-05T22:21:11.982Z,3.15
2022-10-05T22:23:41.384Z,4.25
2022-10-05T22:26:09.499Z,4.22
2022-10-05T22:28:37.162Z,1.95
2022-10-05T22:31:05.471Z,1.58
2022-10-05T22:33:31.996Z,1.95
2022-10-05T22:35:59.134Z,2.28
2022-10-05T22:38:26.153Z,2.45
2022-10-05T22:40:52.978Z,1.92
2022-10-05T22:43:19.575Z,4.28
2022-10-05T22:45:46.124Z,3.22
2022-10-05T22:48:12.822Z,4.70
2022-10-05T22:50:39.277Z,1.48
2022-10-05T22:53:05.869Z,2.63
2022-10-05T22:55:32.392Z,1.70
2022-10-05T22:57:58.901Z,4.65
2022-10-05T23:00:40.370Z,2.92
2022-10-05T23:03:12.805Z,3.25
2022-10-05T23:05:39.225Z,5.82
2022-10-05T23:08:08.036Z,5.57
2022-10-05T23:10:34.576Z,6.13
2022-10-05T23:13:01.877Z,3.03
2022-10-05T23:15:28.397Z,2.42
2022-10-05T23:17:56.180Z,5.88
2022-10-05T23:20:23.427Z,5.78
2022-10-05T23:22:50.017Z,7.35
2022-10-05T23:25:17.869Z,3.72
2022-10-05T23:27:45.675Z,5.95
2022-10-05T23:30:12.861Z,2.58
2022-10-05T23:32:40.678Z,5.00
2022-10-05T23:35:08.359Z,3.92
2022-10-05T23:37:42.540Z,5.38
2022-10-05T23:40:10.448Z,5.18
2022-10-05T23:42:36.951Z,7.10
2022-10-05T23:45:06.371Z,6.30
2022-10-05T23:47:32.847Z,9.95
2022-10-05T23:49:59.329Z,1.98
2022-10-05T23:52:25.806Z,3.88
2022-10-05T23:54:52.281Z,3.20
2022-10-05T23:57:19.281Z,3.97
2022-10-05T23:59:45.976Z,6.45
